Terminal Aerodrome Forecast
Issued by NWS

Home | Current Version | Previous Version | Text Only | Print | Product List | Glossary On
Versions: 1 2 3 4 5 6 7 8 9 10 11 12 13 14
000
FTUS43 KILX 020500
TAFCMI
TAF
KCMI 020520Z 0206/0306 VRB03KT 5SM BR BKN150
     FM021000 VRB03KT 3SM BR SCT002
     FM021400 01005KT P6SM SCT040=

USA.gov is the U.S. government's official web portal to all federal, state and local government web resources and services.